Terminal Aerodrome Forecast
Issued by NWS

Home | Current Version | Previous Version | Graphics & Text | Print | Product List | Glossary On
Versions: 1 2 3 4 5 6 7 8 9 10 11 12 13 14 15 16 17 18 19 20
000
FTUS41 KCLE 210539
TAFFDY
TAF
KFDY 210539Z 2106/2206 VRB04KT 6SM BR BKN035
     FM211000 14004KT 1SM BR OVC004
     FM211400 18008KT 3SM BR OVC015
     FM211700 19012KT P6SM BKN035=

USA.gov is the U.S. government's official web portal to all federal, state and local government web resources and services.